TimeCST,TemperatureF,Dew PointF,Humidity,Sea Level PressureIn,VisibilityMPH,Wind Direction,Wind SpeedMPH,Gust SpeedMPH,PrecipitationIn,Events,Conditions,WindDirDegrees,DateUTC
12:55 AM,-2.9,-11.9,65,30.56,10.0,East,5.8,-,N/A,,Clear,90,2013-02-21 06:55:00
1:55 AM,-6.0,-13.0,72,30.58,10.0,ENE,3.5,-,N/A,,Clear,70,2013-02-21 07:55:00
2:55 AM,-13.0,-17.0,82,30.58,10.0,ENE,3.5,-,N/A,,Clear,70,2013-02-21 08:55:00
3:55 AM,-11.9,-16.1,82,30.58,10.0,Calm,Calm,-,N/A,,Clear,0,2013-02-21 09:55:00
4:55 AM,-8.0,-14.1,75,30.59,10.0,East,9.2,-,N/A,,Clear,90,2013-02-21 10:55:00
5:55 AM,-8.0,-14.1,75,30.59,10.0,East,8.1,-,N/A,,Clear,90,2013-02-21 11:55:00
6:55 AM,-8.0,-14.1,75,30.59,10.0,East,8.1,-,N/A,,Clear,90,2013-02-21 12:55:00
7:55 AM,-7.1,-14.1,72,30.57,10.0,ENE,4.6,-,N/A,,Clear,70,2013-02-21 13:55:00
8:55 AM,-4.0,-13.0,65,30.55,10.0,Calm,Calm,-,N/A,,Clear,0,2013-02-21 14:55:00
9:55 AM,-0.0,-9.9,63,30.61,10.0,Calm,Calm,-,N/A,,Clear,0,2013-02-21 15:55:00
10:55 AM,7.0,-8.0,51,30.59,10.0,Calm,Calm,-,N/A,,Clear,0,2013-02-21 16:55:00
11:55 AM,9.0,-6.0,51,30.55,10.0,NNE,8.1,-,N/A,,Clear,20,2013-02-21 17:55:00
12:55 PM,12.0,-4.0,49,30.52,10.0,NNE,5.8,-,N/A,,Clear,20,2013-02-21 18:55:00
1:55 PM,15.1,-5.1,41,30.49,10.0,NE,6.9,-,N/A,,Clear,50,2013-02-21 19:55:00
2:55 PM,17.1,-2.9,41,30.47,10.0,NE,9.2,-,N/A,,Clear,40,2013-02-21 20:55:00
3:55 PM,18.0,-5.1,36,30.44,10.0,ENE,8.1,-,N/A,,Clear,60,2013-02-21 21:55:00
4:55 PM,18.0,-2.9,40,30.43,10.0,NE,4.6,-,N/A,,Clear,40,2013-02-21 22:55:00
5:55 PM,16.0,-4.0,41,30.43,10.0,ENE,3.5,-,N/A,,Clear,60,2013-02-21 23:55:00
6:55 PM,3.9,-2.9,73,30.44,10.0,ENE,4.6,-,N/A,,Clear,60,2013-02-22 00:55:00
7:55 PM,10.9,-2.9,54,30.40,10.0,ENE,6.9,-,N/A,,Clear,60,2013-02-22 01:55:00
8:55 PM,9.0,-2.0,61,30.39,10.0,ENE,4.6,-,N/A,,Clear,70,2013-02-22 02:55:00
9:55 PM,10.0,-0.0,64,30.36,10.0,ENE,6.9,-,N/A,,Clear,70,2013-02-22 03:55:00
11:55 PM,8.1,1.0,73,30.33,10.0,ENE,5.8,-,N/A,,Clear,60,2013-02-22 05:55:00